Bedwas, United Kingdom
Current Conditions -  °F | °C
As of 6:50 PM on Thursday 30 Oct 2014 (Local Time) from EGFF Reporting Station
Haze Haze  
Wind Chill: 59°   Ceiling: 1600
Heat Index: 59°   Visibility: 2.6mi
Dew Point: 57°   Wind: 6mph
Humidity: 94%   Direction: 120°ESE
Pressure: 30"   Gusts: NA
Location:  51.59°N, 3.2°W
Report Text: EGFF 301850Z AUTO 12005KT 4200 HZ BKN016 BKN026 15/14 Q1016
Loading
Personal Weather Stations






























Interactive Weather Map New forecast layout! Learn more

10-Day Weather Forecast

Advertisements
Track Severe Weather on mobile